sensor_id;sensor_type;location;lat;lon;timestamp;temperature;humidity
5617;DHT22;2830;50.656;7.568;2023-07-02T00:02:05;15.30;99.90
5617;DHT22;2830;50.656;7.568;2023-07-02T00:04:32;15.30;99.90
5617;DHT22;2830;50.656;7.568;2023-07-02T00:06:59;15.30;99.90
5617;DHT22;2830;50.656;7.568;2023-07-02T00:09:26;15.40;99.90
5617;DHT22;2830;50.656;7.568;2023-07-02T00:11:53;15.40;99.90
5617;DHT22;2830;50.656;7.568;2023-07-02T00:14:19;15.40;99.90
5617;DHT22;2830;50.656;7.568;2023-07-02T00:16:46;15.40;99.90
5617;DHT22;2830;50.656;7.568;2023-07-02T00:19:16;15.40;99.90
5617;DHT22;2830;50.656;7.568;2023-07-02T00:21:43;15.40;99.90
5617;DHT22;2830;50.656;7.568;2023-07-02T00:24:10;15.40;99.90
5617;DHT22;2830;50.656;7.568;2023-07-02T00:26:37;15.50;99.90
5617;DHT22;2830;50.656;7.568;2023-07-02T00:29:08;15.40;99.90
5617;DHT22;2830;50.656;7.568;2023-07-02T00:31:35;15.40;99.90
5617;DHT22;2830;50.656;7.568;2023-07-02T00:34:04;15.40;99.90
5617;DHT22;2830;50.656;7.568;2023-07-02T00:36:31;15.30;99.90
5617;DHT22;2830;50.656;7.568;2023-07-02T00:38:59;15.30;99.90
5617;DHT22;2830;50.656;7.568;2023-07-02T00:41:26;15.20;99.90
5617;DHT22;2830;50.656;7.568;2023-07-02T00:43:53;15.10;99.90
5617;DHT22;2830;50.656;7.568;2023-07-02T00:46:22;15.20;99.90
5617;DHT22;2830;50.656;7.568;2023-07-02T00:48:50;15.30;99.90
5617;DHT22;2830;50.656;7.568;2023-07-02T00:51:19;15.30;99.90
5617;DHT22;2830;50.656;7.568;2023-07-02T00:53:48;15.40;99.90
5617;DHT22;2830;50.656;7.568;2023-07-02T00:56:15;15.30;99.90
5617;DHT22;2830;50.656;7.568;2023-07-02T00:58:44;15.70;99.90
5617;DHT22;2830;50.656;7.568;2023-07-02T01:01:14;15.30;99.90
5617;DHT22;2830;50.656;7.568;2023-07-02T01:04:02;15.20;99.90
5617;DHT22;2830;50.656;7.568;2023-07-02T01:06:33;15.10;99.90
5617;DHT22;2830;50.656;7.568;2023-07-02T01:09:02;15.10;99.90
5617;DHT22;2830;50.656;7.568;2023-07-02T01:11:43;15.00;99.90
5617;DHT22;2830;50.656;7.568;2023-07-02T01:14:20;14.90;99.90
5617;DHT22;2830;50.656;7.568;2023-07-02T01:16:48;14.90;99.90
5617;DHT22;2830;50.656;7.568;2023-07-02T01:19:42;14.80;99.90
5617;DHT22;2830;50.656;7.568;2023-07-02T01:22:11;14.90;99.90
5617;DHT22;2830;50.656;7.568;2023-07-02T01:24:39;14.90;99.90
5617;DHT22;2830;50.656;7.568;2023-07-02T01:27:08;14.90;99.90
5617;DHT22;2830;50.656;7.568;2023-07-02T01:29:36;14.80;99.90
5617;DHT22;2830;50.656;7.568;2023-07-02T01:32:04;14.80;99.90
5617;DHT22;2830;50.656;7.568;2023-07-02T01:34:31;14.70;99.90
5617;DHT22;2830;50.656;7.568;2023-07-02T01:36:58;14.70;99.90
5617;DHT22;2830;50.656;7.568;2023-07-02T01:39:25;14.70;99.90
5617;DHT22;2830;50.656;7.568;2023-07-02T01:41:53;14.80;99.90
5617;DHT22;2830;50.656;7.568;2023-07-02T01:44:20;14.80;99.90
5617;DHT22;2830;50.656;7.568;2023-07-02T01:46:48;14.80;99.90
5617;DHT22;2830;50.656;7.568;2023-07-02T01:49:19;14.90;99.90
5617;DHT22;2830;50.656;7.568;2023-07-02T01:51:52;14.90;99.90
5617;DHT22;2830;50.656;7.568;2023-07-02T01:54:20;14.90;99.90
5617;DHT22;2830;50.656;7.568;2023-07-02T01:56:48;15.00;99.90
5617;DHT22;2830;50.656;7.568;2023-07-02T01:59:15;14.90;99.90
5617;DHT22;2830;50.656;7.568;2023-07-02T02:01:43;14.90;99.90
5617;DHT22;2830;50.656;7.568;2023-07-02T02:04:11;14.90;99.90
5617;DHT22;2830;50.656;7.568;2023-07-02T02:06:38;15.00;99.90
5617;DHT22;2830;50.656;7.568;2023-07-02T02:09:05;15.00;99.90
5617;DHT22;2830;50.656;7.568;2023-07-02T02:11:33;15.00;99.90
5617;DHT22;2830;50.656;7.568;2023-07-02T02:14:00;15.00;99.90
5617;DHT22;2830;50.656;7.568;2023-07-02T02:16:30;15.00;99.90
5617;DHT22;2830;50.656;7.568;2023-07-02T02:18:57;15.00;99.90
5617;DHT22;2830;50.656;7.568;2023-07-02T02:21:24;14.90;99.90
5617;DHT22;2830;50.656;7.568;2023-07-02T02:23:50;14.90;99.90
5617;DHT22;2830;50.656;7.568;2023-07-02T02:26:17;14.90;99.90
5617;DHT22;2830;50.656;7.568;2023-07-02T02:28:44;14.80;99.90
5617;DHT22;2830;50.656;7.568;2023-07-02T02:31:10;14.80;99.90
5617;DHT22;2830;50.656;7.568;2023-07-02T02:33:37;14.70;99.90
5617;DHT22;2830;50.656;7.568;2023-07-02T02:36:04;14.70;99.90
5617;DHT22;2830;50.656;7.568;2023-07-02T02:38:31;14.70;99.90
5617;DHT22;2830;50.656;7.568;2023-07-02T02:40:58;14.70;99.90
5617;DHT22;2830;50.656;7.568;2023-07-02T02:43:24;14.60;99.90
5617;DHT22;2830;50.656;7.568;2023-07-02T02:45:51;14.70;99.90
5617;DHT22;2830;50.656;7.568;2023-07-02T02:48:18;14.70;99.90
5617;DHT22;2830;50.656;7.568;2023-07-02T02:50:46;14.70;99.90
5617;DHT22;2830;50.656;7.568;2023-07-02T02:53:13;14.60;99.90
5617;DHT22;2830;50.656;7.568;2023-07-02T02:55:40;14.60;99.90
5617;DHT22;2830;50.656;7.568;2023-07-02T02:58:07;14.60;99.90
5617;DHT22;2830;50.656;7.568;2023-07-02T03:00:34;14.60;99.90
5617;DHT22;2830;50.656;7.568;2023-07-02T03:03:00;14.50;99.90
5617;DHT22;2830;50.656;7.568;2023-07-02T03:05:27;14.50;99.90
5617;DHT22;2830;50.656;7.568;2023-07-02T03:07:54;14.50;99.90
5617;DHT22;2830;50.656;7.568;2023-07-02T03:10:21;14.50;99.90
5617;DHT22;2830;50.656;7.568;2023-07-02T03:12:48;14.50;99.90
5617;DHT22;2830;50.656;7.568;2023-07-02T03:15:14;14.50;99.90
5617;DHT22;2830;50.656;7.568;2023-07-02T03:17:41;14.40;99.90
5617;DHT22;2830;50.656;7.568;2023-07-02T03:20:08;14.40;99.90
5617;DHT22;2830;50.656;7.568;2023-07-02T03:22:35;14.30;99.90
5617;DHT22;2830;50.656;7.568;2023-07-02T03:25:02;14.30;99.90
5617;DHT22;2830;50.656;7.568;2023-07-02T03:27:28;14.30;99.90
5617;DHT22;2830;50.656;7.568;2023-07-02T03:29:55;14.30;99.90
5617;DHT22;2830;50.656;7.568;2023-07-02T03:32:22;14.30;99.90
5617;DHT22;2830;50.656;7.568;2023-07-02T03:34:49;14.30;99.90
5617;DHT22;2830;50.656;7.568;2023-07-02T03:37:16;14.30;99.90
5617;DHT22;2830;50.656;7.568;2023-07-02T03:39:42;14.40;99.90
5617;DHT22;2830;50.656;7.568;2023-07-02T03:42:09;14.70;99.90
5617;DHT22;2830;50.656;7.568;2023-07-02T03:44:36;14.40;99.90
5617;DHT22;2830;50.656;7.568;2023-07-02T03:47:02;14.30;99.90
5617;DHT22;2830;50.656;7.568;2023-07-02T03:49:29;14.30;99.90
5617;DHT22;2830;50.656;7.568;2023-07-02T03:51:56;14.30;99.90
5617;DHT22;2830;50.656;7.568;2023-07-02T03:54:22;14.30;99.90
5617;DHT22;2830;50.656;7.568;2023-07-02T03:56:49;14.30;99.90
5617;DHT22;2830;50.656;7.568;2023-07-02T03:59:16;14.30;99.90
5617;DHT22;2830;50.656;7.568;2023-07-02T04:01:42;14.20;99.90
5617;DHT22;2830;50.656;7.568;2023-07-02T04:04:10;14.10;99.90
5617;DHT22;2830;50.656;7.568;2023-07-02T04:06:38;14.10;99.90
5617;DHT22;2830;50.656;7.568;2023-07-02T04:09:07;14.30;99.90
5617;DHT22;2830;50.656;7.568;2023-07-02T04:11:33;14.40;99.90
5617;DHT22;2830;50.656;7.568;2023-07-02T04:14:00;14.40;99.90
5617;DHT22;2830;50.656;7.568;2023-07-02T04:16:27;14.40;99.90
5617;DHT22;2830;50.656;7.568;2023-07-02T04:18:53;14.50;99.90
5617;DHT22;2830;50.656;7.568;2023-07-02T04:21:20;14.50;99.90
5617;DHT22;2830;50.656;7.568;2023-07-02T04:23:47;14.60;99.90
5617;DHT22;2830;50.656;7.568;2023-07-02T04:26:14;14.60;99.90
5617;DHT22;2830;50.656;7.568;2023-07-02T04:29:00;14.70;99.90
5617;DHT22;2830;50.656;7.568;2023-07-02T04:31:27;14.70;99.90
5617;DHT22;2830;50.656;7.568;2023-07-02T04:33:54;14.80;99.90
5617;DHT22;2830;50.656;7.568;2023-07-02T04:36:21;14.80;99.90
5617;DHT22;2830;50.656;7.568;2023-07-02T04:38:47;14.80;99.90
5617;DHT22;2830;50.656;7.568;2023-07-02T04:41:14;14.70;99.90
5617;DHT22;2830;50.656;7.568;2023-07-02T04:43:41;14.80;99.90
5617;DHT22;2830;50.656;7.568;2023-07-02T04:46:07;14.90;99.90
5617;DHT22;2830;50.656;7.568;2023-07-02T04:48:34;14.90;99.90
5617;DHT22;2830;50.656;7.568;2023-07-02T04:51:01;15.00;99.90
5617;DHT22;2830;50.656;7.568;2023-07-02T04:53:28;14.90;99.90
5617;DHT22;2830;50.656;7.568;2023-07-02T04:55:55;14.90;99.90
5617;DHT22;2830;50.656;7.568;2023-07-02T04:58:23;14.90;99.90
5617;DHT22;2830;50.656;7.568;2023-07-02T05:00:50;14.90;99.90
5617;DHT22;2830;50.656;7.568;2023-07-02T05:03:17;15.00;99.90
5617;DHT22;2830;50.656;7.568;2023-07-02T05:05:44;15.00;99.90
5617;DHT22;2830;50.656;7.568;2023-07-02T05:08:10;15.10;99.90
5617;DHT22;2830;50.656;7.568;2023-07-02T05:10:37;15.10;99.90
5617;DHT22;2830;50.656;7.568;2023-07-02T05:13:04;15.10;99.90
5617;DHT22;2830;50.656;7.568;2023-07-02T05:15:30;15.00;99.90
5617;DHT22;2830;50.656;7.568;2023-07-02T05:17:57;15.00;99.90
5617;DHT22;2830;50.656;7.568;2023-07-02T05:20:24;15.10;99.90
5617;DHT22;2830;50.656;7.568;2023-07-02T05:22:51;15.10;99.90
5617;DHT22;2830;50.656;7.568;2023-07-02T05:25:17;15.20;99.90
5617;DHT22;2830;50.656;7.568;2023-07-02T05:27:44;15.20;99.90
5617;DHT22;2830;50.656;7.568;2023-07-02T05:30:11;15.20;99.90
5617;DHT22;2830;50.656;7.568;2023-07-02T05:32:38;15.30;99.90
5617;DHT22;2830;50.656;7.568;2023-07-02T05:35:06;15.20;99.90
5617;DHT22;2830;50.656;7.568;2023-07-02T05:37:33;15.10;99.90
5617;DHT22;2830;50.656;7.568;2023-07-02T05:39:59;15.00;99.90
5617;DHT22;2830;50.656;7.568;2023-07-02T05:42:26;14.90;99.90
5617;DHT22;2830;50.656;7.568;2023-07-02T05:44:53;14.90;99.90
5617;DHT22;2830;50.656;7.568;2023-07-02T05:47:20;15.00;99.90
5617;DHT22;2830;50.656;7.568;2023-07-02T05:49:46;15.10;99.90
5617;DHT22;2830;50.656;7.568;2023-07-02T05:52:13;15.20;99.90
5617;DHT22;2830;50.656;7.568;2023-07-02T05:54:40;15.30;99.90
5617;DHT22;2830;50.656;7.568;2023-07-02T05:57:07;15.30;99.90
5617;DHT22;2830;50.656;7.568;2023-07-02T05:59:34;15.40;99.90
5617;DHT22;2830;50.656;7.568;2023-07-02T06:02:02;15.30;99.90
5617;DHT22;2830;50.656;7.568;2023-07-02T06:04:28;15.40;99.90
5617;DHT22;2830;50.656;7.568;2023-07-02T06:06:55;15.50;99.90
5617;DHT22;2830;50.656;7.568;2023-07-02T06:09:23;15.70;99.90
5617;DHT22;2830;50.656;7.568;2023-07-02T06:11:49;15.80;99.90
5617;DHT22;2830;50.656;7.568;2023-07-02T06:14:16;15.90;99.90
5617;DHT22;2830;50.656;7.568;2023-07-02T06:16:42;15.80;99.90
5617;DHT22;2830;50.656;7.568;2023-07-02T06:19:09;15.90;99.90
5617;DHT22;2830;50.656;7.568;2023-07-02T06:21:36;15.90;99.90
5617;DHT22;2830;50.656;7.568;2023-07-02T06:24:03;15.90;99.90
5617;DHT22;2830;50.656;7.568;2023-07-02T06:26:30;16.00;99.90
5617;DHT22;2830;50.656;7.568;2023-07-02T06:28:58;16.10;99.90
5617;DHT22;2830;50.656;7.568;2023-07-02T06:31:25;16.10;99.90
5617;DHT22;2830;50.656;7.568;2023-07-02T06:33:52;16.20;99.90
5617;DHT22;2830;50.656;7.568;2023-07-02T06:36:19;16.30;99.90
5617;DHT22;2830;50.656;7.568;2023-07-02T06:38:46;16.40;99.90
5617;DHT22;2830;50.656;7.568;2023-07-02T06:41:15;16.60;99.90
5617;DHT22;2830;50.656;7.568;2023-07-02T06:43:42;16.70;99.90
5617;DHT22;2830;50.656;7.568;2023-07-02T06:46:13;16.80;99.90
5617;DHT22;2830;50.656;7.568;2023-07-02T06:48:40;16.90;99.90
5617;DHT22;2830;50.656;7.568;2023-07-02T06:51:06;17.00;99.90
5617;DHT22;2830;50.656;7.568;2023-07-02T06:53:35;17.30;99.90
5617;DHT22;2830;50.656;7.568;2023-07-02T06:56:02;17.60;99.90
5617;DHT22;2830;50.656;7.568;2023-07-02T06:58:30;18.00;99.90
5617;DHT22;2830;50.656;7.568;2023-07-02T07:00:57;18.50;99.90
5617;DHT22;2830;50.656;7.568;2023-07-02T07:03:24;18.90;99.90
5617;DHT22;2830;50.656;7.568;2023-07-02T07:05:51;19.00;99.90
5617;DHT22;2830;50.656;7.568;2023-07-02T07:08:17;19.50;99.90
5617;DHT22;2830;50.656;7.568;2023-07-02T07:10:44;19.50;99.90
5617;DHT22;2830;50.656;7.568;2023-07-02T07:13:12;19.00;99.90
5617;DHT22;2830;50.656;7.568;2023-07-02T07:15:39;18.50;99.90
5617;DHT22;2830;50.656;7.568;2023-07-02T07:18:08;18.30;99.90
5617;DHT22;2830;50.656;7.568;2023-07-02T07:20:35;18.30;99.90
5617;DHT22;2830;50.656;7.568;2023-07-02T07:23:03;18.40;99.90
5617;DHT22;2830;50.656;7.568;2023-07-02T07:25:30;18.60;99.90
5617;DHT22;2830;50.656;7.568;2023-07-02T07:27:57;19.40;99.90
5617;DHT22;2830;50.656;7.568;2023-07-02T07:30:24;19.50;99.90
5617;DHT22;2830;50.656;7.568;2023-07-02T07:32:52;20.40;99.90
5617;DHT22;2830;50.656;7.568;2023-07-02T07:35:20;21.00;99.90
5617;DHT22;2830;50.656;7.568;2023-07-02T07:37:48;21.50;99.90
5617;DHT22;2830;50.656;7.568;2023-07-02T07:40:15;21.50;99.90
5617;DHT22;2830;50.656;7.568;2023-07-02T07:42:41;21.80;99.10
5617;DHT22;2830;50.656;7.568;2023-07-02T07:45:11;21.80;98.50
5617;DHT22;2830;50.656;7.568;2023-07-02T07:47:38;21.60;98.60
5617;DHT22;2830;50.656;7.568;2023-07-02T07:50:06;21.30;98.20
5617;DHT22;2830;50.656;7.568;2023-07-02T07:52:38;21.10;99.20
5617;DHT22;2830;50.656;7.568;2023-07-02T07:55:06;21.60;97.50
5617;DHT22;2830;50.656;7.568;2023-07-02T07:57:34;22.90;97.40
5617;DHT22;2830;50.656;7.568;2023-07-02T08:00:03;23.50;92.10
5617;DHT22;2830;50.656;7.568;2023-07-02T08:02:33;23.90;93.10
5617;DHT22;2830;50.656;7.568;2023-07-02T08:05:00;24.00;91.50
5617;DHT22;2830;50.656;7.568;2023-07-02T08:07:27;24.10;86.00
5617;DHT22;2830;50.656;7.568;2023-07-02T08:09:54;23.70;86.00
5617;DHT22;2830;50.656;7.568;2023-07-02T08:12:20;23.80;90.00
5617;DHT22;2830;50.656;7.568;2023-07-02T08:14:47;24.10;89.50
5617;DHT22;2830;50.656;7.568;2023-07-02T08:17:14;24.50;83.70
5617;DHT22;2830;50.656;7.568;2023-07-02T08:19:41;23.80;83.90
5617;DHT22;2830;50.656;7.568;2023-07-02T08:22:07;23.70;78.90
5617;DHT22;2830;50.656;7.568;2023-07-02T08:24:34;23.90;86.10
5617;DHT22;2830;50.656;7.568;2023-07-02T08:27:02;24.30;81.00
5617;DHT22;2830;50.656;7.568;2023-07-02T08:29:30;24.30;82.80
5617;DHT22;2830;50.656;7.568;2023-07-02T08:31:57;23.90;79.90
5617;DHT22;2830;50.656;7.568;2023-07-02T08:34:24;23.50;80.20
5617;DHT22;2830;50.656;7.568;2023-07-02T08:36:51;23.60;82.80
5617;DHT22;2830;50.656;7.568;2023-07-02T08:39:18;23.60;79.20
5617;DHT22;2830;50.656;7.568;2023-07-02T08:41:46;23.30;82.60
5617;DHT22;2830;50.656;7.568;2023-07-02T08:44:16;22.20;83.80
5617;DHT22;2830;50.656;7.568;2023-07-02T08:46:44;22.20;87.00
5617;DHT22;2830;50.656;7.568;2023-07-02T08:49:12;22.60;88.40
5617;DHT22;2830;50.656;7.568;2023-07-02T08:51:39;22.70;84.40
5617;DHT22;2830;50.656;7.568;2023-07-02T08:54:05;22.20;84.20
5617;DHT22;2830;50.656;7.568;2023-07-02T08:56:32;22.20;85.50
5617;DHT22;2830;50.656;7.568;2023-07-02T08:58:59;22.20;86.50
5617;DHT22;2830;50.656;7.568;2023-07-02T09:01:26;22.20;85.00
5617;DHT22;2830;50.656;7.568;2023-07-02T09:03:58;22.50;86.70
5617;DHT22;2830;50.656;7.568;2023-07-02T09:06:27;22.70;81.50
5617;DHT22;2830;50.656;7.568;2023-07-02T09:09:03;22.80;82.60
5617;DHT22;2830;50.656;7.568;2023-07-02T09:11:30;22.90;83.40
5617;DHT22;2830;50.656;7.568;2023-07-02T09:13:57;23.60;85.00
5617;DHT22;2830;50.656;7.568;2023-07-02T09:16:31;23.50;78.40
5617;DHT22;2830;50.656;7.568;2023-07-02T09:19:01;23.30;82.90
5617;DHT22;2830;50.656;7.568;2023-07-02T09:21:38;22.70;82.50
5617;DHT22;2830;50.656;7.568;2023-07-02T09:24:23;22.30;85.90
5617;DHT22;2830;50.656;7.568;2023-07-02T09:26:54;21.80;82.90
5617;DHT22;2830;50.656;7.568;2023-07-02T09:29:27;21.50;84.00
5617;DHT22;2830;50.656;7.568;2023-07-02T09:32:01;21.20;86.30
5617;DHT22;2830;50.656;7.568;2023-07-02T09:34:38;21.00;88.10
5617;DHT22;2830;50.656;7.568;2023-07-02T09:37:06;20.90;89.80
5617;DHT22;2830;50.656;7.568;2023-07-02T09:39:34;21.00;91.00
5617;DHT22;2830;50.656;7.568;2023-07-02T09:42:04;20.80;88.80
5617;DHT22;2830;50.656;7.568;2023-07-02T09:44:33;20.80;90.80
5617;DHT22;2830;50.656;7.568;2023-07-02T09:47:08;21.30;89.20
5617;DHT22;2830;50.656;7.568;2023-07-02T09:49:43;22.10;89.00
5617;DHT22;2830;50.656;7.568;2023-07-02T09:52:13;23.30;82.20
5617;DHT22;2830;50.656;7.568;2023-07-02T09:54:41;23.50;82.30
5617;DHT22;2830;50.656;7.568;2023-07-02T09:57:08;23.20;81.90
5617;DHT22;2830;50.656;7.568;2023-07-02T09:59:35;22.70;81.90
5617;DHT22;2830;50.656;7.568;2023-07-02T10:02:02;22.10;83.10
5617;DHT22;2830;50.656;7.568;2023-07-02T10:04:40;22.50;84.70
5617;DHT22;2830;50.656;7.568;2023-07-02T10:07:07;22.20;87.20
5617;DHT22;2830;50.656;7.568;2023-07-02T10:09:44;22.20;89.60
5617;DHT22;2830;50.656;7.568;2023-07-02T10:12:20;22.50;90.00
5617;DHT22;2830;50.656;7.568;2023-07-02T10:14:49;22.70;85.10
5617;DHT22;2830;50.656;7.568;2023-07-02T10:17:33;22.90;87.70
5617;DHT22;2830;50.656;7.568;2023-07-02T10:20:04;23.40;88.40
5617;DHT22;2830;50.656;7.568;2023-07-02T10:22:45;23.70;85.50
5617;DHT22;2830;50.656;7.568;2023-07-02T10:25:27;24.00;85.80
5617;DHT22;2830;50.656;7.568;2023-07-02T10:27:55;24.80;80.70
5617;DHT22;2830;50.656;7.568;2023-07-02T10:30:51;25.40;79.00
5617;DHT22;2830;50.656;7.568;2023-07-02T10:33:20;24.70;77.20
5617;DHT22;2830;50.656;7.568;2023-07-02T10:35:48;24.00;80.30
5617;DHT22;2830;50.656;7.568;2023-07-02T10:38:21;23.30;80.50
5617;DHT22;2830;50.656;7.568;2023-07-02T10:40:59;22.50;87.00
5617;DHT22;2830;50.656;7.568;2023-07-02T10:43:28;21.50;87.70
5617;DHT22;2830;50.656;7.568;2023-07-02T10:45:56;21.20;90.30
5617;DHT22;2830;50.656;7.568;2023-07-02T10:48:23;20.80;90.60
5617;DHT22;2830;50.656;7.568;2023-07-02T10:50:50;20.80;93.50
5617;DHT22;2830;50.656;7.568;2023-07-02T10:53:19;20.60;93.80
5617;DHT22;2830;50.656;7.568;2023-07-02T10:55:54;20.50;93.90
5617;DHT22;2830;50.656;7.568;2023-07-02T10:58:23;20.60;93.70
5617;DHT22;2830;50.656;7.568;2023-07-02T11:00:51;20.80;93.40
5617;DHT22;2830;50.656;7.568;2023-07-02T11:03:22;21.10;93.30
5617;DHT22;2830;50.656;7.568;2023-07-02T11:05:50;21.30;91.30
5617;DHT22;2830;50.656;7.568;2023-07-02T11:08:18;21.30;91.70
5617;DHT22;2830;50.656;7.568;2023-07-02T11:10:45;21.30;91.60
5617;DHT22;2830;50.656;7.568;2023-07-02T11:13:19;21.20;92.30
5617;DHT22;2830;50.656;7.568;2023-07-02T11:15:47;21.20;92.20
5617;DHT22;2830;50.656;7.568;2023-07-02T11:18:16;21.30;93.10
5617;DHT22;2830;50.656;7.568;2023-07-02T11:20:44;21.30;94.40
5617;DHT22;2830;50.656;7.568;2023-07-02T11:23:24;21.40;92.50
5617;DHT22;2830;50.656;7.568;2023-07-02T11:26:02;21.30;92.30
5617;DHT22;2830;50.656;7.568;2023-07-02T11:28:31;21.20;92.60
5617;DHT22;2830;50.656;7.568;2023-07-02T11:30:58;21.00;92.70
5617;DHT22;2830;50.656;7.568;2023-07-02T11:33:41;21.10;92.30
5617;DHT22;2830;50.656;7.568;2023-07-02T11:36:20;21.30;91.80
5617;DHT22;2830;50.656;7.568;2023-07-02T11:38:48;21.40;90.50
5617;DHT22;2830;50.656;7.568;2023-07-02T11:41:15;21.70;93.40
5617;DHT22;2830;50.656;7.568;2023-07-02T11:43:41;23.70;90.80
5617;DHT22;2830;50.656;7.568;2023-07-02T11:46:08;25.10;83.10
5617;DHT22;2830;50.656;7.568;2023-07-02T11:48:35;24.90;80.20
5617;DHT22;2830;50.656;7.568;2023-07-02T11:51:01;24.30;82.60
5617;DHT22;2830;50.656;7.568;2023-07-02T11:53:28;23.60;80.00
5617;DHT22;2830;50.656;7.568;2023-07-02T11:55:55;22.80;83.90
5617;DHT22;2830;50.656;7.568;2023-07-02T11:58:23;22.40;83.30
5617;DHT22;2830;50.656;7.568;2023-07-02T12:00:50;22.40;83.60
5617;DHT22;2830;50.656;7.568;2023-07-02T12:03:17;23.30;88.90
5617;DHT22;2830;50.656;7.568;2023-07-02T12:05:43;23.80;81.50
5617;DHT22;2830;50.656;7.568;2023-07-02T12:08:10;23.90;81.90
5617;DHT22;2830;50.656;7.568;2023-07-02T12:10:37;23.10;83.80
5617;DHT22;2830;50.656;7.568;2023-07-02T12:13:04;22.40;81.00
5617;DHT22;2830;50.656;7.568;2023-07-02T12:15:31;22.10;84.70
5617;DHT22;2830;50.656;7.568;2023-07-02T12:17:58;21.90;84.20
5617;DHT22;2830;50.656;7.568;2023-07-02T12:20:24;21.70;85.50
5617;DHT22;2830;50.656;7.568;2023-07-02T12:22:51;21.30;89.50
5617;DHT22;2830;50.656;7.568;2023-07-02T12:25:18;21.30;89.60
5617;DHT22;2830;50.656;7.568;2023-07-02T12:27:45;21.30;89.20
5617;DHT22;2830;50.656;7.568;2023-07-02T12:30:11;21.50;88.30
5617;DHT22;2830;50.656;7.568;2023-07-02T12:32:38;21.80;89.70
5617;DHT22;2830;50.656;7.568;2023-07-02T12:35:05;22.00;85.50
5617;DHT22;2830;50.656;7.568;2023-07-02T12:37:32;22.40;85.80
5617;DHT22;2830;50.656;7.568;2023-07-02T12:39:59;23.60;84.50
5617;DHT22;2830;50.656;7.568;2023-07-02T12:42:25;24.60;84.60
5617;DHT22;2830;50.656;7.568;2023-07-02T12:44:52;25.40;81.30
5617;DHT22;2830;50.656;7.568;2023-07-02T12:47:19;26.10;76.50
5617;DHT22;2830;50.656;7.568;2023-07-02T12:49:46;26.00;67.40
5617;DHT22;2830;50.656;7.568;2023-07-02T12:52:12;25.60;73.70
5617;DHT22;2830;50.656;7.568;2023-07-02T12:54:39;25.10;70.50
5617;DHT22;2830;50.656;7.568;2023-07-02T12:57:06;24.40;69.70
5617;DHT22;2830;50.656;7.568;2023-07-02T12:59:33;24.00;78.00
5617;DHT22;2830;50.656;7.568;2023-07-02T13:01:59;23.60;70.30
5617;DHT22;2830;50.656;7.568;2023-07-02T13:04:26;23.50;69.00
5617;DHT22;2830;50.656;7.568;2023-07-02T13:06:53;24.40;70.50
5617;DHT22;2830;50.656;7.568;2023-07-02T13:09:20;24.80;68.40
5617;DHT22;2830;50.656;7.568;2023-07-02T13:11:47;24.60;67.80
5617;DHT22;2830;50.656;7.568;2023-07-02T13:14:14;24.60;69.70
5617;DHT22;2830;50.656;7.568;2023-07-02T13:16:41;24.80;70.00
5617;DHT22;2830;50.656;7.568;2023-07-02T13:19:07;25.00;70.50
5617;DHT22;2830;50.656;7.568;2023-07-02T13:21:34;24.90;72.00
5617;DHT22;2830;50.656;7.568;2023-07-02T13:24:01;24.80;72.70
5617;DHT22;2830;50.656;7.568;2023-07-02T13:26:27;24.90;72.10
5617;DHT22;2830;50.656;7.568;2023-07-02T13:28:54;25.30;70.70
5617;DHT22;2830;50.656;7.568;2023-07-02T13:31:21;25.10;70.00
5617;DHT22;2830;50.656;7.568;2023-07-02T13:33:48;24.40;72.70
5617;DHT22;2830;50.656;7.568;2023-07-02T13:36:16;24.20;76.40
5617;DHT22;2830;50.656;7.568;2023-07-02T13:38:43;23.90;72.00
5617;DHT22;2830;50.656;7.568;2023-07-02T13:41:09;23.60;75.90
5617;DHT22;2830;50.656;7.568;2023-07-02T13:43:36;23.70;74.70
5617;DHT22;2830;50.656;7.568;2023-07-02T13:46:03;23.80;75.00
5617;DHT22;2830;50.656;7.568;2023-07-02T13:48:30;24.60;72.80
5617;DHT22;2830;50.656;7.568;2023-07-02T13:50:57;24.40;73.60
5617;DHT22;2830;50.656;7.568;2023-07-02T13:53:23;24.30;72.40
5617;DHT22;2830;50.656;7.568;2023-07-02T13:55:50;23.80;72.00
5617;DHT22;2830;50.656;7.568;2023-07-02T13:58:17;23.80;74.00
5617;DHT22;2830;50.656;7.568;2023-07-02T14:00:55;23.80;76.50
5617;DHT22;2830;50.656;7.568;2023-07-02T14:03:22;23.90;77.10
5617;DHT22;2830;50.656;7.568;2023-07-02T14:05:49;23.70;76.10
5617;DHT22;2830;50.656;7.568;2023-07-02T14:08:17;23.50;77.50
5617;DHT22;2830;50.656;7.568;2023-07-02T14:10:44;23.50;76.60
5617;DHT22;2830;50.656;7.568;2023-07-02T14:13:13;23.00;78.10
5617;DHT22;2830;50.656;7.568;2023-07-02T14:15:40;22.70;78.30
5617;DHT22;2830;50.656;7.568;2023-07-02T14:18:07;22.70;82.20
5617;DHT22;2830;50.656;7.568;2023-07-02T14:20:34;23.00;79.40
5617;DHT22;2830;50.656;7.568;2023-07-02T14:23:00;23.50;84.20
5617;DHT22;2830;50.656;7.568;2023-07-02T14:25:27;23.80;78.90
5617;DHT22;2830;50.656;7.568;2023-07-02T14:28:08;23.80;78.70
5617;DHT22;2830;50.656;7.568;2023-07-02T14:30:35;24.10;74.10
5617;DHT22;2830;50.656;7.568;2023-07-02T14:33:03;23.80;72.10
5617;DHT22;2830;50.656;7.568;2023-07-02T14:35:31;23.70;77.40
5617;DHT22;2830;50.656;7.568;2023-07-02T14:37:58;23.50;75.60
5617;DHT22;2830;50.656;7.568;2023-07-02T14:40:25;23.20;73.00
5617;DHT22;2830;50.656;7.568;2023-07-02T14:42:52;23.00;75.50
5617;DHT22;2830;50.656;7.568;2023-07-02T14:45:18;23.00;76.00
5617;DHT22;2830;50.656;7.568;2023-07-02T14:47:45;23.20;80.90
5617;DHT22;2830;50.656;7.568;2023-07-02T14:50:12;23.40;75.20
5617;DHT22;2830;50.656;7.568;2023-07-02T14:52:39;23.40;73.50
5617;DHT22;2830;50.656;7.568;2023-07-02T14:55:06;23.30;75.70
5617;DHT22;2830;50.656;7.568;2023-07-02T14:57:32;23.20;76.20
5617;DHT22;2830;50.656;7.568;2023-07-02T14:59:59;23.10;77.00
5617;DHT22;2830;50.656;7.568;2023-07-02T15:02:26;23.10;77.40
5617;DHT22;2830;50.656;7.568;2023-07-02T15:04:54;23.10;76.90
5617;DHT22;2830;50.656;7.568;2023-07-02T15:07:21;22.90;76.50
5617;DHT22;2830;50.656;7.568;2023-07-02T15:09:48;22.80;77.10
5617;DHT22;2830;50.656;7.568;2023-07-02T15:12:15;22.80;77.40
5617;DHT22;2830;50.656;7.568;2023-07-02T15:14:42;22.80;78.10
5617;DHT22;2830;50.656;7.568;2023-07-02T15:17:09;22.80;76.00
5617;DHT22;2830;50.656;7.568;2023-07-02T15:19:35;22.90;75.80
5617;DHT22;2830;50.656;7.568;2023-07-02T15:22:02;23.10;75.40
5617;DHT22;2830;50.656;7.568;2023-07-02T15:24:29;22.90;70.40
5617;DHT22;2830;50.656;7.568;2023-07-02T15:26:56;22.70;69.80
5617;DHT22;2830;50.656;7.568;2023-07-02T15:29:22;22.60;74.30
5617;DHT22;2830;50.656;7.568;2023-07-02T15:31:49;22.40;74.70
5617;DHT22;2830;50.656;7.568;2023-07-02T15:34:16;22.30;71.10
5617;DHT22;2830;50.656;7.568;2023-07-02T15:36:45;22.50;72.00
5617;DHT22;2830;50.656;7.568;2023-07-02T15:39:13;22.70;73.30
5617;DHT22;2830;50.656;7.568;2023-07-02T15:41:41;22.90;70.70
5617;DHT22;2830;50.656;7.568;2023-07-02T15:44:09;23.20;71.20
5617;DHT22;2830;50.656;7.568;2023-07-02T15:46:36;23.20;71.60
5617;DHT22;2830;50.656;7.568;2023-07-02T15:49:03;23.20;73.40
5617;DHT22;2830;50.656;7.568;2023-07-02T15:51:31;23.20;71.60
5617;DHT22;2830;50.656;7.568;2023-07-02T15:54:04;23.20;71.90
5617;DHT22;2830;50.656;7.568;2023-07-02T15:56:33;22.90;70.30
5617;DHT22;2830;50.656;7.568;2023-07-02T15:59:02;22.70;71.00
5617;DHT22;2830;50.656;7.568;2023-07-02T16:01:29;22.50;72.20
5617;DHT22;2830;50.656;7.568;2023-07-02T16:04:01;22.60;75.10
5617;DHT22;2830;50.656;7.568;2023-07-02T16:06:28;22.70;70.50
5617;DHT22;2830;50.656;7.568;2023-07-02T16:09:01;22.80;71.80